Terminal Aerodrome Forecast
Issued by NWS Shreveport, LA

Home | Current Version | Previous Version | Text Only | Print | Product List | Glossary On
Versions: 1 2 3 4 5 6 7 8 9 10 11 12 13 14 15 16 17
000
FTUS44 KSHV 221041 AAA
TAFLFK
TAF AMD
KLFK 221041Z 2211/2306 VRB04KT P6SM VCTS BKN012CB
      TEMPO 2211/2213 VRB20G40KT 2SM TSRA BR BKN007CB
     FM221300 35005KT 6SM -SHRA BR SCT008 BKN015
      TEMPO 2213/2215 4SM -TSRA BR BKN008CB
     FM221600 34008KT P6SM SCT050 BKN090
     FM221900 34011KT P6SM BKN020
     FM222200 34008KT P6SM SCT025 SCT250
     FM230100 33004KT P6SM SKC=

USA.gov is the U.S. government's official web portal to all federal, state and local government web resources and services.